sensor_id;sensor_type;location;lat;lon;timestamp;P1;durP1;ratioP1;P2;durP2;ratioP2
23573;SDS011;11965;53.640;10.050;2023-05-24T00:02:08;11.96;;;9.00;;
23573;SDS011;11965;53.640;10.050;2023-05-24T00:04:38;11.88;;;8.87;;
23573;SDS011;11965;53.640;10.050;2023-05-24T00:07:05;11.95;;;9.02;;
23573;SDS011;11965;53.640;10.050;2023-05-24T00:09:32;12.57;;;9.27;;
23573;SDS011;11965;53.640;10.050;2023-05-24T00:12:01;12.89;;;9.41;;
23573;SDS011;11965;53.640;10.050;2023-05-24T00:14:28;13.55;;;9.76;;
23573;SDS011;11965;53.640;10.050;2023-05-24T00:16:55;13.53;;;9.80;;
23573;SDS011;11965;53.640;10.050;2023-05-24T00:19:22;13.12;;;9.55;;
23573;SDS011;11965;53.640;10.050;2023-05-24T00:21:50;13.23;;;9.76;;
23573;SDS011;11965;53.640;10.050;2023-05-24T00:24:16;12.64;;;9.29;;
23573;SDS011;11965;53.640;10.050;2023-05-24T00:26:43;12.65;;;9.46;;
23573;SDS011;11965;53.640;10.050;2023-05-24T00:29:12;13.61;;;10.00;;
23573;SDS011;11965;53.640;10.050;2023-05-24T00:31:39;13.01;;;9.53;;
23573;SDS011;11965;53.640;10.050;2023-05-24T00:34:06;12.22;;;9.09;;
23573;SDS011;11965;53.640;10.050;2023-05-24T00:36:33;13.18;;;9.54;;
23573;SDS011;11965;53.640;10.050;2023-05-24T00:39:02;13.50;;;10.10;;
23573;SDS011;11965;53.640;10.050;2023-05-24T00:41:29;12.68;;;9.42;;
23573;SDS011;11965;53.640;10.050;2023-05-24T00:43:56;13.40;;;9.68;;
23573;SDS011;11965;53.640;10.050;2023-05-24T00:46:26;13.76;;;10.07;;
23573;SDS011;11965;53.640;10.050;2023-05-24T00:48:54;12.47;;;9.34;;
23573;SDS011;11965;53.640;10.050;2023-05-24T00:51:22;12.76;;;9.41;;
23573;SDS011;11965;53.640;10.050;2023-05-24T00:53:52;12.39;;;9.07;;
23573;SDS011;11965;53.640;10.050;2023-05-24T00:56:20;12.49;;;9.14;;
23573;SDS011;11965;53.640;10.050;2023-05-24T00:58:47;12.19;;;9.05;;
23573;SDS011;11965;53.640;10.050;2023-05-24T01:01:18;13.44;;;9.97;;
23573;SDS011;11965;53.640;10.050;2023-05-24T01:03:47;12.56;;;9.40;;
23573;SDS011;11965;53.640;10.050;2023-05-24T01:06:14;12.43;;;9.12;;
23573;SDS011;11965;53.640;10.050;2023-05-24T01:08:47;13.98;;;10.47;;
23573;SDS011;11965;53.640;10.050;2023-05-24T01:11:29;12.22;;;9.49;;
23573;SDS011;11965;53.640;10.050;2023-05-24T01:14:11;12.52;;;9.32;;
23573;SDS011;11965;53.640;10.050;2023-05-24T01:16:51;12.74;;;9.67;;
23573;SDS011;11965;53.640;10.050;2023-05-24T01:19:42;12.67;;;9.60;;
23573;SDS011;11965;53.640;10.050;2023-05-24T01:22:28;11.91;;;9.17;;
23573;SDS011;11965;53.640;10.050;2023-05-24T01:25:11;12.88;;;9.82;;
23573;SDS011;11965;53.640;10.050;2023-05-24T01:27:49;12.40;;;9.41;;
23573;SDS011;11965;53.640;10.050;2023-05-24T01:30:17;13.26;;;9.73;;
23573;SDS011;11965;53.640;10.050;2023-05-24T01:32:47;13.36;;;9.98;;
23573;SDS011;11965;53.640;10.050;2023-05-24T01:35:14;13.21;;;9.82;;
23573;SDS011;11965;53.640;10.050;2023-05-24T01:37:42;12.18;;;9.30;;
23573;SDS011;11965;53.640;10.050;2023-05-24T01:40:09;13.11;;;9.88;;
23573;SDS011;11965;53.640;10.050;2023-05-24T01:42:39;14.18;;;10.42;;
23573;SDS011;11965;53.640;10.050;2023-05-24T01:45:15;13.60;;;10.17;;
23573;SDS011;11965;53.640;10.050;2023-05-24T01:47:52;14.19;;;10.42;;
23573;SDS011;11965;53.640;10.050;2023-05-24T01:50:44;13.38;;;10.10;;
23573;SDS011;11965;53.640;10.050;2023-05-24T01:53:18;12.73;;;9.65;;
23573;SDS011;11965;53.640;10.050;2023-05-24T01:55:52;12.62;;;9.43;;
23573;SDS011;11965;53.640;10.050;2023-05-24T01:58:22;13.26;;;9.85;;
23573;SDS011;11965;53.640;10.050;2023-05-24T02:00:53;13.52;;;10.16;;
23573;SDS011;11965;53.640;10.050;2023-05-24T02:03:21;13.18;;;9.87;;
23573;SDS011;11965;53.640;10.050;2023-05-24T02:05:48;12.89;;;9.76;;
23573;SDS011;11965;53.640;10.050;2023-05-24T02:08:15;13.11;;;9.91;;
23573;SDS011;11965;53.640;10.050;2023-05-24T02:10:42;12.34;;;9.51;;
23573;SDS011;11965;53.640;10.050;2023-05-24T02:13:10;11.90;;;9.35;;
23573;SDS011;11965;53.640;10.050;2023-05-24T02:15:36;12.33;;;9.64;;
23573;SDS011;11965;53.640;10.050;2023-05-24T02:18:11;12.21;;;9.28;;
23573;SDS011;11965;53.640;10.050;2023-05-24T02:20:38;13.67;;;10.04;;
23573;SDS011;11965;53.640;10.050;2023-05-24T02:23:05;13.51;;;9.96;;
23573;SDS011;11965;53.640;10.050;2023-05-24T02:25:32;14.31;;;10.49;;
23573;SDS011;11965;53.640;10.050;2023-05-24T02:27:59;12.92;;;9.59;;
23573;SDS011;11965;53.640;10.050;2023-05-24T02:30:26;13.23;;;9.80;;
23573;SDS011;11965;53.640;10.050;2023-05-24T02:32:53;12.16;;;9.34;;
23573;SDS011;11965;53.640;10.050;2023-05-24T02:35:22;12.64;;;9.61;;
23573;SDS011;11965;53.640;10.050;2023-05-24T02:37:48;12.65;;;9.46;;
23573;SDS011;11965;53.640;10.050;2023-05-24T02:40:16;12.04;;;9.52;;
23573;SDS011;11965;53.640;10.050;2023-05-24T02:42:43;12.64;;;9.76;;
23573;SDS011;11965;53.640;10.050;2023-05-24T02:45:10;12.20;;;9.23;;
23573;SDS011;11965;53.640;10.050;2023-05-24T02:47:37;12.60;;;9.72;;
23573;SDS011;11965;53.640;10.050;2023-05-24T02:50:04;12.89;;;9.51;;
23573;SDS011;11965;53.640;10.050;2023-05-24T02:52:33;13.17;;;9.55;;
23573;SDS011;11965;53.640;10.050;2023-05-24T02:55:00;13.01;;;9.50;;
23573;SDS011;11965;53.640;10.050;2023-05-24T02:57:27;12.81;;;9.54;;
23573;SDS011;11965;53.640;10.050;2023-05-24T02:59:58;13.47;;;9.99;;
23573;SDS011;11965;53.640;10.050;2023-05-24T03:02:25;12.23;;;9.18;;
23573;SDS011;11965;53.640;10.050;2023-05-24T03:04:53;12.27;;;9.21;;
23573;SDS011;11965;53.640;10.050;2023-05-24T03:07:20;11.67;;;8.96;;
23573;SDS011;11965;53.640;10.050;2023-05-24T03:09:48;11.31;;;8.81;;
23573;SDS011;11965;53.640;10.050;2023-05-24T03:12:15;10.75;;;8.54;;
23573;SDS011;11965;53.640;10.050;2023-05-24T03:14:42;11.60;;;9.06;;
23573;SDS011;11965;53.640;10.050;2023-05-24T03:17:09;12.25;;;9.42;;
23573;SDS011;11965;53.640;10.050;2023-05-24T03:19:37;12.38;;;9.29;;
23573;SDS011;11965;53.640;10.050;2023-05-24T03:22:03;12.43;;;9.54;;
23573;SDS011;11965;53.640;10.050;2023-05-24T03:24:31;11.34;;;8.77;;
23573;SDS011;11965;53.640;10.050;2023-05-24T03:27:00;12.11;;;9.45;;
23573;SDS011;11965;53.640;10.050;2023-05-24T03:29:27;11.90;;;9.40;;
23573;SDS011;11965;53.640;10.050;2023-05-24T03:31:53;12.11;;;9.30;;
23573;SDS011;11965;53.640;10.050;2023-05-24T03:34:21;12.24;;;9.27;;
23573;SDS011;11965;53.640;10.050;2023-05-24T03:36:51;12.53;;;9.61;;
23573;SDS011;11965;53.640;10.050;2023-05-24T03:39:18;12.27;;;9.56;;
23573;SDS011;11965;53.640;10.050;2023-05-24T03:42:12;12.15;;;9.33;;
23573;SDS011;11965;53.640;10.050;2023-05-24T03:44:39;12.24;;;9.41;;
23573;SDS011;11965;53.640;10.050;2023-05-24T03:47:06;11.79;;;9.26;;
23573;SDS011;11965;53.640;10.050;2023-05-24T03:49:33;13.01;;;9.66;;
23573;SDS011;11965;53.640;10.050;2023-05-24T03:52:00;12.14;;;9.32;;
23573;SDS011;11965;53.640;10.050;2023-05-24T03:54:27;13.76;;;10.41;;
23573;SDS011;11965;53.640;10.050;2023-05-24T03:56:54;12.77;;;9.63;;
23573;SDS011;11965;53.640;10.050;2023-05-24T03:59:24;11.38;;;8.98;;
23573;SDS011;11965;53.640;10.050;2023-05-24T04:01:51;11.93;;;9.50;;
23573;SDS011;11965;53.640;10.050;2023-05-24T04:04:19;11.21;;;9.07;;
23573;SDS011;11965;53.640;10.050;2023-05-24T04:06:45;11.25;;;9.30;;
23573;SDS011;11965;53.640;10.050;2023-05-24T04:09:14;12.21;;;9.82;;
23573;SDS011;11965;53.640;10.050;2023-05-24T04:11:41;12.79;;;10.02;;
23573;SDS011;11965;53.640;10.050;2023-05-24T04:14:10;12.48;;;9.85;;
23573;SDS011;11965;53.640;10.050;2023-05-24T04:16:38;12.04;;;9.48;;
23573;SDS011;11965;53.640;10.050;2023-05-24T04:19:08;12.64;;;10.11;;
23573;SDS011;11965;53.640;10.050;2023-05-24T04:21:35;12.74;;;10.17;;
23573;SDS011;11965;53.640;10.050;2023-05-24T04:24:04;13.26;;;10.23;;
23573;SDS011;11965;53.640;10.050;2023-05-24T04:26:31;12.88;;;10.15;;
23573;SDS011;11965;53.640;10.050;2023-05-24T04:28:59;11.83;;;9.64;;
23573;SDS011;11965;53.640;10.050;2023-05-24T04:31:28;11.35;;;9.07;;
23573;SDS011;11965;53.640;10.050;2023-05-24T04:33:59;12.42;;;9.85;;
23573;SDS011;11965;53.640;10.050;2023-05-24T04:36:26;12.35;;;9.67;;
23573;SDS011;11965;53.640;10.050;2023-05-24T04:38:58;13.31;;;10.12;;
23573;SDS011;11965;53.640;10.050;2023-05-24T04:41:29;12.85;;;10.08;;
23573;SDS011;11965;53.640;10.050;2023-05-24T04:43:57;12.42;;;10.00;;
23573;SDS011;11965;53.640;10.050;2023-05-24T04:46:24;12.29;;;9.75;;
23573;SDS011;11965;53.640;10.050;2023-05-24T04:48:52;13.03;;;10.12;;
23573;SDS011;11965;53.640;10.050;2023-05-24T04:51:21;12.78;;;10.07;;
23573;SDS011;11965;53.640;10.050;2023-05-24T04:53:48;13.53;;;10.67;;
23573;SDS011;11965;53.640;10.050;2023-05-24T04:56:15;12.36;;;9.93;;
23573;SDS011;11965;53.640;10.050;2023-05-24T04:58:42;12.34;;;9.96;;
23573;SDS011;11965;53.640;10.050;2023-05-24T05:01:08;10.92;;;8.98;;
23573;SDS011;11965;53.640;10.050;2023-05-24T05:03:35;10.76;;;9.07;;
23573;SDS011;11965;53.640;10.050;2023-05-24T05:06:02;11.36;;;9.47;;
23573;SDS011;11965;53.640;10.050;2023-05-24T05:08:31;12.29;;;10.02;;
23573;SDS011;11965;53.640;10.050;2023-05-24T05:10:58;11.37;;;9.31;;
23573;SDS011;11965;53.640;10.050;2023-05-24T05:13:25;12.01;;;9.64;;
23573;SDS011;11965;53.640;10.050;2023-05-24T05:15:52;12.70;;;10.07;;
23573;SDS011;11965;53.640;10.050;2023-05-24T05:18:19;12.35;;;10.02;;
23573;SDS011;11965;53.640;10.050;2023-05-24T05:20:45;11.62;;;9.55;;
23573;SDS011;11965;53.640;10.050;2023-05-24T05:23:13;12.26;;;10.02;;
23573;SDS011;11965;53.640;10.050;2023-05-24T05:25:42;10.97;;;9.16;;
23573;SDS011;11965;53.640;10.050;2023-05-24T05:28:09;12.02;;;9.86;;
23573;SDS011;11965;53.640;10.050;2023-05-24T05:30:35;11.69;;;9.67;;
23573;SDS011;11965;53.640;10.050;2023-05-24T05:33:02;12.55;;;10.18;;
23573;SDS011;11965;53.640;10.050;2023-05-24T05:35:30;12.07;;;9.69;;
23573;SDS011;11965;53.640;10.050;2023-05-24T05:37:57;11.26;;;9.06;;
23573;SDS011;11965;53.640;10.050;2023-05-24T05:40:24;12.02;;;9.50;;
23573;SDS011;11965;53.640;10.050;2023-05-24T05:42:52;11.49;;;9.34;;
23573;SDS011;11965;53.640;10.050;2023-05-24T05:45:19;11.52;;;9.60;;
23573;SDS011;11965;53.640;10.050;2023-05-24T05:47:46;12.97;;;10.47;;
23573;SDS011;11965;53.640;10.050;2023-05-24T05:50:13;13.45;;;10.56;;
23573;SDS011;11965;53.640;10.050;2023-05-24T05:52:40;12.47;;;9.92;;
23573;SDS011;11965;53.640;10.050;2023-05-24T05:55:07;12.55;;;9.98;;
23573;SDS011;11965;53.640;10.050;2023-05-24T05:57:36;11.84;;;9.77;;
23573;SDS011;11965;53.640;10.050;2023-05-24T06:00:05;12.69;;;10.30;;
23573;SDS011;11965;53.640;10.050;2023-05-24T06:02:37;12.06;;;9.93;;
23573;SDS011;11965;53.640;10.050;2023-05-24T06:05:04;12.22;;;10.08;;
23573;SDS011;11965;53.640;10.050;2023-05-24T06:07:31;11.39;;;9.77;;
23573;SDS011;11965;53.640;10.050;2023-05-24T06:09:59;12.59;;;10.45;;
23573;SDS011;11965;53.640;10.050;2023-05-24T06:12:26;10.85;;;9.33;;
23573;SDS011;11965;53.640;10.050;2023-05-24T06:14:53;11.75;;;10.00;;
23573;SDS011;11965;53.640;10.050;2023-05-24T06:17:23;12.06;;;9.90;;
23573;SDS011;11965;53.640;10.050;2023-05-24T06:19:50;11.64;;;9.68;;
23573;SDS011;11965;53.640;10.050;2023-05-24T06:22:20;14.33;;;11.65;;
23573;SDS011;11965;53.640;10.050;2023-05-24T06:24:47;13.35;;;10.80;;
23573;SDS011;11965;53.640;10.050;2023-05-24T06:27:14;12.75;;;10.37;;
23573;SDS011;11965;53.640;10.050;2023-05-24T06:29:41;12.75;;;10.57;;
23573;SDS011;11965;53.640;10.050;2023-05-24T06:32:08;14.10;;;11.28;;
23573;SDS011;11965;53.640;10.050;2023-05-24T06:34:36;13.11;;;10.51;;
23573;SDS011;11965;53.640;10.050;2023-05-24T06:37:03;14.85;;;12.69;;
23573;SDS011;11965;53.640;10.050;2023-05-24T06:39:30;26.93;;;26.81;;
23573;SDS011;11965;53.640;10.050;2023-05-24T06:41:57;26.92;;;26.92;;
23573;SDS011;11965;53.640;10.050;2023-05-24T06:44:24;18.70;;;18.31;;
23573;SDS011;11965;53.640;10.050;2023-05-24T06:46:56;15.32;;;13.93;;
23573;SDS011;11965;53.640;10.050;2023-05-24T06:49:23;14.03;;;12.15;;
23573;SDS011;11965;53.640;10.050;2023-05-24T06:51:51;13.39;;;10.89;;
23573;SDS011;11965;53.640;10.050;2023-05-24T06:54:18;13.16;;;10.52;;
23573;SDS011;11965;53.640;10.050;2023-05-24T06:56:46;13.08;;;10.37;;
23573;SDS011;11965;53.640;10.050;2023-05-24T06:59:12;12.15;;;9.69;;
23573;SDS011;11965;53.640;10.050;2023-05-24T07:01:39;11.88;;;9.69;;
23573;SDS011;11965;53.640;10.050;2023-05-24T07:04:07;11.57;;;9.40;;
23573;SDS011;11965;53.640;10.050;2023-05-24T07:06:34;12.28;;;9.79;;
23573;SDS011;11965;53.640;10.050;2023-05-24T07:09:05;12.43;;;9.63;;
23573;SDS011;11965;53.640;10.050;2023-05-24T07:11:32;12.91;;;10.15;;
23573;SDS011;11965;53.640;10.050;2023-05-24T07:13:59;12.87;;;10.37;;
23573;SDS011;11965;53.640;10.050;2023-05-24T07:16:25;17.55;;;15.49;;
23573;SDS011;11965;53.640;10.050;2023-05-24T07:18:53;12.47;;;11.53;;
23573;SDS011;11965;53.640;10.050;2023-05-24T07:21:22;11.48;;;10.01;;
23573;SDS011;11965;53.640;10.050;2023-05-24T07:23:49;12.89;;;10.81;;
23573;SDS011;11965;53.640;10.050;2023-05-24T07:26:18;11.70;;;9.74;;
23573;SDS011;11965;53.640;10.050;2023-05-24T07:28:46;11.78;;;9.59;;
23573;SDS011;11965;53.640;10.050;2023-05-24T07:31:13;12.77;;;10.13;;
23573;SDS011;11965;53.640;10.050;2023-05-24T07:33:40;12.19;;;9.82;;
23573;SDS011;11965;53.640;10.050;2023-05-24T07:36:07;11.25;;;9.25;;
23573;SDS011;11965;53.640;10.050;2023-05-24T07:38:34;11.76;;;9.59;;
23573;SDS011;11965;53.640;10.050;2023-05-24T07:41:01;12.08;;;9.94;;
23573;SDS011;11965;53.640;10.050;2023-05-24T07:43:30;11.52;;;9.35;;
23573;SDS011;11965;53.640;10.050;2023-05-24T07:45:57;14.67;;;12.30;;
23573;SDS011;11965;53.640;10.050;2023-05-24T07:48:24;24.38;;;24.29;;
23573;SDS011;11965;53.640;10.050;2023-05-24T07:50:51;10.80;;;10.24;;
23573;SDS011;11965;53.640;10.050;2023-05-24T07:53:19;11.69;;;10.11;;
23573;SDS011;11965;53.640;10.050;2023-05-24T07:55:47;11.43;;;9.63;;
23573;SDS011;11965;53.640;10.050;2023-05-24T07:58:15;11.80;;;9.86;;
23573;SDS011;11965;53.640;10.050;2023-05-24T08:00:43;12.27;;;9.77;;
23573;SDS011;11965;53.640;10.050;2023-05-24T08:03:11;12.41;;;9.91;;
23573;SDS011;11965;53.640;10.050;2023-05-24T08:05:39;11.35;;;9.24;;
23573;SDS011;11965;53.640;10.050;2023-05-24T08:08:07;10.92;;;9.05;;
23573;SDS011;11965;53.640;10.050;2023-05-24T08:10:34;11.00;;;9.21;;
23573;SDS011;11965;53.640;10.050;2023-05-24T08:13:01;11.62;;;9.42;;
23573;SDS011;11965;53.640;10.050;2023-05-24T08:15:29;12.70;;;10.41;;
23573;SDS011;11965;53.640;10.050;2023-05-24T08:17:58;13.60;;;10.65;;
23573;SDS011;11965;53.640;10.050;2023-05-24T08:20:25;11.03;;;8.99;;
23573;SDS011;11965;53.640;10.050;2023-05-24T08:22:52;10.35;;;8.75;;
23573;SDS011;11965;53.640;10.050;2023-05-24T08:25:19;10.32;;;8.67;;
23573;SDS011;11965;53.640;10.050;2023-05-24T08:27:46;10.19;;;8.62;;
23573;SDS011;11965;53.640;10.050;2023-05-24T08:30:13;10.11;;;8.66;;
23573;SDS011;11965;53.640;10.050;2023-05-24T08:32:40;10.55;;;8.97;;
23573;SDS011;11965;53.640;10.050;2023-05-24T08:35:08;11.06;;;9.28;;
23573;SDS011;11965;53.640;10.050;2023-05-24T08:37:35;11.20;;;9.39;;
23573;SDS011;11965;53.640;10.050;2023-05-24T08:40:02;10.61;;;9.04;;
23573;SDS011;11965;53.640;10.050;2023-05-24T08:42:30;11.67;;;10.03;;
23573;SDS011;11965;53.640;10.050;2023-05-24T08:44:57;11.01;;;9.28;;
23573;SDS011;11965;53.640;10.050;2023-05-24T08:47:30;10.84;;;9.28;;
23573;SDS011;11965;53.640;10.050;2023-05-24T08:49:58;10.48;;;9.08;;
23573;SDS011;11965;53.640;10.050;2023-05-24T08:52:30;10.52;;;9.18;;
23573;SDS011;11965;53.640;10.050;2023-05-24T08:54:58;11.37;;;9.77;;
23573;SDS011;11965;53.640;10.050;2023-05-24T08:57:25;9.49;;;8.27;;
23573;SDS011;11965;53.640;10.050;2023-05-24T08:59:54;9.57;;;8.19;;
23573;SDS011;11965;53.640;10.050;2023-05-24T09:02:22;9.77;;;8.65;;
23573;SDS011;11965;53.640;10.050;2023-05-24T09:04:51;9.43;;;8.39;;
23573;SDS011;11965;53.640;10.050;2023-05-24T09:07:19;9.14;;;7.92;;
23573;SDS011;11965;53.640;10.050;2023-05-24T09:09:51;7.81;;;6.76;;
23573;SDS011;11965;53.640;10.050;2023-05-24T09:12:25;6.81;;;6.16;;
23573;SDS011;11965;53.640;10.050;2023-05-24T09:14:57;6.53;;;6.03;;
23573;SDS011;11965;53.640;10.050;2023-05-24T09:17:27;6.51;;;5.95;;
23573;SDS011;11965;53.640;10.050;2023-05-24T09:19:57;5.91;;;5.38;;
23573;SDS011;11965;53.640;10.050;2023-05-24T09:22:26;5.81;;;5.23;;
23573;SDS011;11965;53.640;10.050;2023-05-24T09:24:58;5.62;;;5.19;;
23573;SDS011;11965;53.640;10.050;2023-05-24T09:27:26;5.26;;;4.85;;
23573;SDS011;11965;53.640;10.050;2023-05-24T09:29:54;6.90;;;6.25;;
23573;SDS011;11965;53.640;10.050;2023-05-24T09:32:21;6.89;;;6.47;;
23573;SDS011;11965;53.640;10.050;2023-05-24T09:34:50;6.02;;;5.67;;
23573;SDS011;11965;53.640;10.050;2023-05-24T09:37:18;6.51;;;6.07;;
23573;SDS011;11965;53.640;10.050;2023-05-24T09:39:47;6.54;;;6.09;;
23573;SDS011;11965;53.640;10.050;2023-05-24T09:42:17;7.15;;;6.50;;
23573;SDS011;11965;53.640;10.050;2023-05-24T09:44:48;6.66;;;5.96;;
23573;SDS011;11965;53.640;10.050;2023-05-24T09:47:27;7.10;;;6.35;;
23573;SDS011;11965;53.640;10.050;2023-05-24T09:49:54;7.22;;;6.50;;
23573;SDS011;11965;53.640;10.050;2023-05-24T09:52:22;7.56;;;6.72;;
23573;SDS011;11965;53.640;10.050;2023-05-24T09:54:49;8.25;;;7.16;;
23573;SDS011;11965;53.640;10.050;2023-05-24T09:57:18;7.77;;;6.81;;
23573;SDS011;11965;53.640;10.050;2023-05-24T09:59:47;7.86;;;6.89;;
23573;SDS011;11965;53.640;10.050;2023-05-24T10:02:14;7.86;;;7.01;;
23573;SDS011;11965;53.640;10.050;2023-05-24T10:04:44;8.22;;;7.19;;
23573;SDS011;11965;53.640;10.050;2023-05-24T10:07:12;8.00;;;7.06;;
23573;SDS011;11965;53.640;10.050;2023-05-24T10:09:41;8.40;;;7.41;;
23573;SDS011;11965;53.640;10.050;2023-05-24T10:12:10;8.36;;;7.45;;
23573;SDS011;11965;53.640;10.050;2023-05-24T10:14:38;9.19;;;8.03;;
23573;SDS011;11965;53.640;10.050;2023-05-24T10:17:06;7.49;;;6.71;;
23573;SDS011;11965;53.640;10.050;2023-05-24T10:19:33;7.57;;;6.63;;
23573;SDS011;11965;53.640;10.050;2023-05-24T10:22:03;7.39;;;6.53;;
23573;SDS011;11965;53.640;10.050;2023-05-24T10:24:34;8.07;;;7.21;;
23573;SDS011;11965;53.640;10.050;2023-05-24T10:27:06;8.14;;;7.21;;
23573;SDS011;11965;53.640;10.050;2023-05-24T10:29:43;8.07;;;7.04;;
23573;SDS011;11965;53.640;10.050;2023-05-24T10:32:20;8.03;;;7.01;;
23573;SDS011;11965;53.640;10.050;2023-05-24T10:34:49;8.65;;;7.54;;
23573;SDS011;11965;53.640;10.050;2023-05-24T10:37:18;8.35;;;7.11;;
23573;SDS011;11965;53.640;10.050;2023-05-24T10:39:45;7.56;;;6.59;;
23573;SDS011;11965;53.640;10.050;2023-05-24T10:42:12;7.44;;;6.54;;
23573;SDS011;11965;53.640;10.050;2023-05-24T10:44:39;7.36;;;6.55;;
23573;SDS011;11965;53.640;10.050;2023-05-24T10:47:11;7.78;;;6.76;;
23573;SDS011;11965;53.640;10.050;2023-05-24T10:49:46;7.25;;;6.42;;
23573;SDS011;11965;53.640;10.050;2023-05-24T10:52:15;7.98;;;6.92;;
23573;SDS011;11965;53.640;10.050;2023-05-24T10:57:29;7.42;;;6.61;;
23573;SDS011;11965;53.640;10.050;2023-05-24T10:59:57;7.32;;;6.75;;
23573;SDS011;11965;53.640;10.050;2023-05-24T11:02:58;7.47;;;6.61;;
23573;SDS011;11965;53.640;10.050;2023-05-24T11:05:31;7.45;;;6.62;;
23573;SDS011;11965;53.640;10.050;2023-05-24T11:07:59;7.62;;;6.75;;
23573;SDS011;11965;53.640;10.050;2023-05-24T11:10:31;7.36;;;6.51;;
23573;SDS011;11965;53.640;10.050;2023-05-24T11:12:58;6.62;;;6.05;;
23573;SDS011;11965;53.640;10.050;2023-05-24T11:15:28;5.88;;;5.50;;
23573;SDS011;11965;53.640;10.050;2023-05-24T11:18:14;6.66;;;6.08;;
23573;SDS011;11965;53.640;10.050;2023-05-24T11:20:42;6.05;;;5.47;;
23573;SDS011;11965;53.640;10.050;2023-05-24T11:23:11;5.87;;;5.34;;
23573;SDS011;11965;53.640;10.050;2023-05-24T11:25:40;6.46;;;5.92;;
23573;SDS011;11965;53.640;10.050;2023-05-24T11:28:07;6.59;;;6.06;;
23573;SDS011;11965;53.640;10.050;2023-05-24T11:30:39;6.24;;;5.77;;
23573;SDS011;11965;53.640;10.050;2023-05-24T11:33:12;6.04;;;5.60;;
23573;SDS011;11965;53.640;10.050;2023-05-24T11:35:40;6.19;;;5.68;;
23573;SDS011;11965;53.640;10.050;2023-05-24T11:38:08;5.75;;;5.29;;
23573;SDS011;11965;53.640;10.050;2023-05-24T11:40:37;6.12;;;5.61;;
23573;SDS011;11965;53.640;10.050;2023-05-24T11:43:09;6.28;;;5.72;;
23573;SDS011;11965;53.640;10.050;2023-05-24T11:45:42;5.52;;;5.15;;
23573;SDS011;11965;53.640;10.050;2023-05-24T11:48:10;5.55;;;5.15;;
23573;SDS011;11965;53.640;10.050;2023-05-24T11:50:38;5.57;;;5.14;;
23573;SDS011;11965;53.640;10.050;2023-05-24T11:53:08;5.81;;;5.28;;
23573;SDS011;11965;53.640;10.050;2023-05-24T11:55:35;5.63;;;5.24;;
23573;SDS011;11965;53.640;10.050;2023-05-24T11:58:05;5.66;;;5.13;;
23573;SDS011;11965;53.640;10.050;2023-05-24T12:00:37;5.42;;;4.99;;
23573;SDS011;11965;53.640;10.050;2023-05-24T12:03:06;5.70;;;5.31;;
23573;SDS011;11965;53.640;10.050;2023-05-24T12:05:34;5.71;;;5.40;;
23573;SDS011;11965;53.640;10.050;2023-05-24T12:08:02;5.83;;;5.48;;
23573;SDS011;11965;53.640;10.050;2023-05-24T12:10:31;5.68;;;5.35;;
23573;SDS011;11965;53.640;10.050;2023-05-24T12:12:59;5.53;;;5.12;;
23573;SDS011;11965;53.640;10.050;2023-05-24T12:15:27;6.15;;;5.71;;
23573;SDS011;11965;53.640;10.050;2023-05-24T12:17:54;5.39;;;5.04;;
23573;SDS011;11965;53.640;10.050;2023-05-24T12:20:23;5.74;;;5.33;;
23573;SDS011;11965;53.640;10.050;2023-05-24T12:22:53;5.70;;;5.30;;
23573;SDS011;11965;53.640;10.050;2023-05-24T12:25:21;5.27;;;5.01;;
23573;SDS011;11965;53.640;10.050;2023-05-24T12:27:51;5.08;;;4.88;;
23573;SDS011;11965;53.640;10.050;2023-05-24T12:30:24;5.59;;;5.40;;
23573;SDS011;11965;53.640;10.050;2023-05-24T12:32:55;5.65;;;5.39;;
23573;SDS011;11965;53.640;10.050;2023-05-24T12:35:23;5.76;;;5.50;;
23573;SDS011;11965;53.640;10.050;2023-05-24T12:37:56;5.60;;;5.40;;
23573;SDS011;11965;53.640;10.050;2023-05-24T12:40:25;5.30;;;5.03;;
23573;SDS011;11965;53.640;10.050;2023-05-24T12:42:55;5.49;;;5.19;;
23573;SDS011;11965;53.640;10.050;2023-05-24T12:45:23;5.17;;;5.01;;
23573;SDS011;11965;53.640;10.050;2023-05-24T12:47:52;5.43;;;5.27;;
23573;SDS011;11965;53.640;10.050;2023-05-24T12:50:20;5.32;;;5.07;;
23573;SDS011;11965;53.640;10.050;2023-05-24T12:52:50;5.05;;;4.80;;
23573;SDS011;11965;53.640;10.050;2023-05-24T12:55:18;5.85;;;5.62;;
23573;SDS011;11965;53.640;10.050;2023-05-24T12:57:47;5.22;;;5.01;;
23573;SDS011;11965;53.640;10.050;2023-05-24T13:00:17;5.42;;;5.20;;
23573;SDS011;11965;53.640;10.050;2023-05-24T13:02:46;5.58;;;5.30;;
23573;SDS011;11965;53.640;10.050;2023-05-24T13:05:14;5.45;;;5.27;;
23573;SDS011;11965;53.640;10.050;2023-05-24T13:07:41;5.62;;;5.47;;
23573;SDS011;11965;53.640;10.050;2023-05-24T13:10:11;5.37;;;5.24;;
23573;SDS011;11965;53.640;10.050;2023-05-24T13:12:39;5.48;;;5.36;;
23573;SDS011;11965;53.640;10.050;2023-05-24T13:15:07;5.48;;;5.31;;
23573;SDS011;11965;53.640;10.050;2023-05-24T13:17:35;5.44;;;5.27;;
23573;SDS011;11965;53.640;10.050;2023-05-24T13:20:02;5.12;;;4.97;;
23573;SDS011;11965;53.640;10.050;2023-05-24T13:22:32;5.40;;;5.30;;
23573;SDS011;11965;53.640;10.050;2023-05-24T13:25:00;5.19;;;5.11;;
23573;SDS011;11965;53.640;10.050;2023-05-24T13:27:28;5.50;;;5.41;;
23573;SDS011;11965;53.640;10.050;2023-05-24T13:29:55;5.80;;;5.68;;
23573;SDS011;11965;53.640;10.050;2023-05-24T13:32:23;5.51;;;5.36;;
23573;SDS011;11965;53.640;10.050;2023-05-24T13:34:50;5.47;;;5.32;;
23573;SDS011;11965;53.640;10.050;2023-05-24T13:37:17;5.90;;;5.73;;
23573;SDS011;11965;53.640;10.050;2023-05-24T13:39:44;5.32;;;5.27;;
23573;SDS011;11965;53.640;10.050;2023-05-24T13:42:12;5.87;;;5.77;;
23573;SDS011;11965;53.640;10.050;2023-05-24T13:44:41;6.25;;;6.10;;
23573;SDS011;11965;53.640;10.050;2023-05-24T13:47:08;6.24;;;6.11;;
23573;SDS011;11965;53.640;10.050;2023-05-24T13:49:35;6.20;;;6.09;;
23573;SDS011;11965;53.640;10.050;2023-05-24T13:52:02;6.30;;;6.26;;
23573;SDS011;11965;53.640;10.050;2023-05-24T13:54:29;5.58;;;5.58;;
23573;SDS011;11965;53.640;10.050;2023-05-24T13:56:56;5.05;;;5.05;;
23573;SDS011;11965;53.640;10.050;2023-05-24T13:59:23;5.53;;;5.52;;
23573;SDS011;11965;53.640;10.050;2023-05-24T14:01:52;17.32;;;17.27;;
23573;SDS011;11965;53.640;10.050;2023-05-24T14:04:19;32.69;;;32.39;;
23573;SDS011;11965;53.640;10.050;2023-05-24T14:06:46;6.57;;;6.56;;
23573;SDS011;11965;53.640;10.050;2023-05-24T14:09:13;6.21;;;6.17;;
23573;SDS011;11965;53.640;10.050;2023-05-24T14:11:40;5.80;;;5.73;;
23573;SDS011;11965;53.640;10.050;2023-05-24T14:14:08;5.68;;;5.59;;
23573;SDS011;11965;53.640;10.050;2023-05-24T14:16:35;6.02;;;5.99;;
23573;SDS011;11965;53.640;10.050;2023-05-24T14:19:03;5.82;;;5.80;;
23573;SDS011;11965;53.640;10.050;2023-05-24T14:21:30;5.50;;;5.50;;
23573;SDS011;11965;53.640;10.050;2023-05-24T14:23:57;6.07;;;6.03;;
23573;SDS011;11965;53.640;10.050;2023-05-24T14:26:25;5.97;;;5.92;;
23573;SDS011;11965;53.640;10.050;2023-05-24T14:28:52;6.07;;;5.99;;
23573;SDS011;11965;53.640;10.050;2023-05-24T14:31:18;6.12;;;6.12;;
23573;SDS011;11965;53.640;10.050;2023-05-24T14:33:45;5.66;;;5.66;;
23573;SDS011;11965;53.640;10.050;2023-05-24T14:36:13;5.85;;;5.82;;